Time;durP1;ratioP1;P1;durP2;ratioP2;P2;SDS_P1;SDS_P2;PMS_P1;PMS_P2;Temp;Humidity;BMP_temperature;BMP_pressure;BME280_temperature;BME280_humidity;BME280_pressure;Samples;Min_cycle;Max_cycle;Signal;HPM_P1;HPM_P2
2022/10/19 00:01:38;;;;;;;7.40;1.10;;;7.30;99.90;;;;;;4999001;28;20475;-67
2022/10/19 00:04:04;;;;;;;3.60;0.97;;;7.40;99.90;;;;;;5005625;28;20135;-67
2022/10/19 00:06:33;;;;;;;5.70;0.77;;;7.40;99.90;;;;;;5008929;28;20199;-67
2022/10/19 00:09:14;;;;;;;6.60;0.90;;;7.50;99.90;;;;;;5025380;28;20401;-67
2022/10/19 00:11:45;;;;;;;7.07;1.05;;;7.60;99.90;;;;;;5026460;28;20129;-67
2022/10/19 00:14:14;;;;;;;4.13;1.45;;;7.60;99.90;;;;;;5038161;28;20041;-67
2022/10/19 00:16:44;;;;;;;6.38;0.70;;;7.70;99.90;;;;;;5024829;28;20038;-67
2022/10/19 00:19:14;;;;;;;4.40;0.70;;;7.70;99.90;;;;;;5025171;28;20053;-67
2022/10/19 00:21:40;;;;;;;9.52;1.00;;;7.80;99.90;;;;;;5024212;28;20045;-67
2022/10/19 00:24:07;;;;;;;5.68;0.90;;;7.80;99.90;;;;;;5028992;28;20513;-67
2022/10/19 00:26:33;;;;;;;3.88;0.75;;;7.90;99.90;;;;;;4992274;28;20073;-67
2022/10/19 00:28:59;;;;;;;3.78;1.02;;;7.90;99.90;;;;;;5008759;28;20500;-67
2022/10/19 00:31:25;;;;;;;5.23;0.80;;;7.90;99.90;;;;;;5024772;28;20377;-67
2022/10/19 00:33:52;;;;;;;6.40;0.90;;;7.90;99.90;;;;;;5008477;28;20037;-67
2022/10/19 00:36:22;;;;;;;8.52;0.90;;;7.90;99.90;;;;;;5008250;28;20030;-67
2022/10/19 00:38:48;;;;;;;3.45;0.90;;;8.00;99.90;;;;;;5023999;28;20049;-67
2022/10/19 00:41:15;;;;;;;3.22;0.90;;;8.00;99.90;;;;;;5024558;28;20318;-67
2022/10/19 00:44:11;;;;;;;5.45;0.95;;;8.10;99.90;;;;;;5018376;28;20041;-67
2022/10/19 00:46:38;;;;;;;;;;;8.10;99.90;;;;;;5025364;28;20650;-67
2022/10/19 00:49:23;;;;;;;3.10;0.95;;;8.20;99.90;;;;;;5025224;28;20012;-67
2022/10/19 00:52:00;;;;;;;8.02;1.17;;;8.20;99.90;;;;;;5007152;28;20053;-67
2022/10/19 00:54:26;;;;;;;4.00;1.00;;;8.30;99.90;;;;;;5024438;28;20126;-67
2022/10/19 00:56:55;;;;;;;5.77;1.10;;;8.40;99.90;;;;;;5024757;28;20605;-67
2022/10/19 00:59:24;;;;;;;4.63;1.30;;;8.40;99.90;;;;;;5024367;28;20734;-67
2022/10/19 01:01:50;;;;;;;5.07;0.98;;;8.40;99.90;;;;;;5024127;28;20052;-67
2022/10/19 01:04:19;;;;;;;6.32;0.95;;;8.50;99.90;;;;;;5023923;28;20405;-67
2022/10/19 01:06:45;;;;;;;4.00;0.98;;;8.60;99.90;;;;;;5021166;28;20493;-67
2022/10/19 01:09:10;;;;;;;3.20;0.60;;;8.60;99.90;;;;;;5023870;28;20107;-67
2022/10/19 01:11:57;;;;;;;4.77;1.10;;;8.70;99.90;;;;;;5031059;28;20053;-67
2022/10/19 01:14:35;;;;;;;4.38;0.85;;;8.80;99.90;;;;;;5024558;28;20513;-67
2022/10/19 01:17:16;;;;;;;3.88;0.70;;;8.80;99.90;;;;;;5021477;28;20038;-67
2022/10/19 01:20:11;;;;;;;6.30;0.90;;;8.80;99.90;;;;;;5013373;28;20099;-67
2022/10/19 01:22:59;;;;;;;4.07;0.80;;;8.90;99.90;;;;;;5023130;28;20069;-67
2022/10/19 01:25:43;;;;;;;4.68;0.63;;;8.90;99.90;;;;;;5003850;28;20051;-67
2022/10/19 01:28:47;;;;;;;4.32;0.70;;;8.90;99.90;;;;;;5024297;28;20099;-67
2022/10/19 01:31:41;;;;;;;6.43;0.90;;;8.90;99.90;;;;;;4944622;28;20464;-67
2022/10/19 01:34:24;;;;;;;5.10;0.90;;;8.90;99.90;;;;;;5010267;28;20049;-67
2022/10/19 01:37:22;;;;;;;4.65;1.00;;;8.90;99.90;;;;;;5024334;28;20051;-67
2022/10/19 01:40:06;;;;;;;5.15;0.90;;;8.90;99.90;;;;;;5024620;28;20079;-67
2022/10/19 01:42:44;;;;;;;5.03;0.82;;;8.90;99.90;;;;;;5007355;28;20085;-67
2022/10/19 01:45:18;;;;;;;4.57;1.17;;;8.90;99.90;;;;;;5024019;28;20049;-67
2022/10/19 01:47:44;;;;;;;3.75;0.77;;;9.00;99.90;;;;;;5016487;28;20052;-67
2022/10/19 01:50:22;;;;;;;7.30;1.43;;;9.00;99.90;;;;;;5023947;28;20528;-67
2022/10/19 01:52:49;;;;;;;5.57;0.80;;;9.00;99.90;;;;;;5023803;28;20041;-67
2022/10/19 01:55:16;;;;;;;7.35;0.82;;;9.00;99.90;;;;;;5024114;28;20045;-67
2022/10/19 01:57:46;;;;;;;4.80;0.70;;;9.00;99.90;;;;;;5007052;28;20052;-67
2022/10/19 02:00:15;;;;;;;4.38;0.93;;;9.00;99.90;;;;;;5023780;28;20096;-67
2022/10/19 02:02:50;;;;;;;5.30;0.90;;;9.00;99.90;;;;;;5023374;28;20050;-67
2022/10/19 02:05:19;;;;;;;4.28;0.80;;;9.10;99.90;;;;;;5017802;28;20137;-67
2022/10/19 02:07:53;;;;;;;7.03;0.73;;;9.00;99.90;;;;;;5023477;28;20432;-67
2022/10/19 02:10:20;;;;;;;5.97;0.68;;;9.00;99.90;;;;;;5023428;28;20041;-67
2022/10/19 02:12:47;;;;;;;10.52;0.73;;;9.00;99.90;;;;;;5023019;28;20046;-67
2022/10/19 02:15:18;;;;;;;6.05;0.88;;;9.00;99.90;;;;;;5035037;28;20079;-67
2022/10/19 02:17:48;;;;;;;6.68;0.68;;;8.90;99.90;;;;;;5029431;28;20422;-67
2022/10/19 02:20:15;;;;;;;4.60;0.63;;;8.90;99.90;;;;;;5042725;28;20037;-67
2022/10/19 02:22:41;;;;;;;4.22;0.60;;;8.80;99.90;;;;;;5023128;28;20113;-67
2022/10/19 02:25:08;;;;;;;5.65;0.88;;;8.80;99.90;;;;;;5031705;28;20048;-67
2022/10/19 02:27:35;;;;;;;5.57;0.60;;;8.80;99.90;;;;;;5043742;28;20081;-67
2022/10/19 02:30:02;;;;;;;3.95;0.75;;;8.80;99.90;;;;;;5010981;28;20041;-67
2022/10/19 02:32:28;;;;;;;5.03;0.60;;;8.80;99.90;;;;;;5033193;28;20120;-67
2022/10/19 02:34:54;;;;;;;5.13;0.80;;;8.80;99.90;;;;;;5046346;28;20163;-67
2022/10/19 02:37:20;;;;;;;5.97;0.90;;;8.80;99.90;;;;;;5027216;28;20477;-67
2022/10/19 02:39:46;;;;;;;5.63;0.73;;;8.80;99.90;;;;;;5010174;28;20041;-67
2022/10/19 02:42:16;;;;;;;5.90;0.83;;;8.80;99.90;;;;;;5043101;28;20895;-67
2022/10/19 02:44:56;;;;;;;3.47;0.52;;;8.90;99.90;;;;;;5039188;28;20087;-67
2022/10/19 02:47:27;;;;;;;6.55;0.80;;;8.90;99.90;;;;;;5046387;28;20049;-67
2022/10/19 02:49:53;;;;;;;10.23;1.23;;;8.90;99.90;;;;;;5043951;28;20041;-67
2022/10/19 02:52:19;;;;;;;9.03;1.27;;;8.90;99.90;;;;;;5012591;28;20041;-67
2022/10/19 02:54:45;;;;;;;6.20;0.75;;;8.90;99.90;;;;;;5027600;28;20081;-67
2022/10/19 02:57:22;;;;;;;5.03;0.60;;;8.90;99.90;;;;;;5046189;28;20049;-67
2022/10/19 02:59:48;;;;;;;8.27;1.20;;;8.90;99.90;;;;;;5044546;28;20072;-67
2022/10/19 03:02:15;;;;;;;6.17;1.40;;;8.90;99.90;;;;;;5034634;28;20184;-67
2022/10/19 03:04:41;;;;;;;10.00;0.90;;;9.00;99.90;;;;;;5038670;28;20110;-67
2022/10/19 03:07:15;;;;;;;3.65;0.52;;;9.00;99.90;;;;;;5005179;28;20072;-67
2022/10/19 03:09:44;;;;;;;9.27;0.80;;;9.00;99.90;;;;;;5044137;28;20048;-67
2022/10/19 03:12:11;;;;;;;6.93;0.65;;;9.00;99.90;;;;;;5044775;28;20056;-67
2022/10/19 03:14:37;;;;;;;3.70;0.55;;;9.10;99.90;;;;;;5044224;28;20045;-67
2022/10/19 03:17:03;;;;;;;5.13;0.97;;;9.10;99.90;;;;;;5044122;28;20047;-67
2022/10/19 03:19:29;;;;;;;3.53;0.63;;;9.10;99.90;;;;;;5042947;28;20099;-67
2022/10/19 03:21:54;;;;;;;8.40;0.93;;;9.20;99.90;;;;;;5031877;28;20045;-67
2022/10/19 03:24:21;;;;;;;2.27;0.60;;;9.20;99.90;;;;;;5014724;28;20111;-67
2022/10/19 03:26:47;;;;;;;8.25;1.10;;;9.20;99.90;;;;;;5026277;28;20041;-67
2022/10/19 03:29:13;;;;;;;8.70;1.17;;;9.30;99.90;;;;;;5009325;28;20042;-67
2022/10/19 03:31:38;;;;;;;7.37;0.80;;;9.30;99.90;;;;;;5026223;28;20072;-67
2022/10/19 03:34:04;;;;;;;7.53;0.77;;;9.40;99.90;;;;;;5025598;28;20086;-67
2022/10/19 03:36:36;;;;;;;8.70;0.70;;;9.40;99.90;;;;;;5025800;28;20254;-67
2022/10/19 03:39:05;;;;;;;4.37;0.60;;;9.40;99.90;;;;;;5029404;28;20088;-67
2022/10/19 03:41:33;;;;;;;6.57;0.90;;;9.40;99.90;;;;;;5025798;28;20779;-67
2022/10/19 03:43:59;;;;;;;5.28;0.90;;;9.40;99.90;;;;;;5025208;28;20307;-67
2022/10/19 03:46:25;;;;;;;8.32;0.73;;;9.30;99.90;;;;;;5037701;28;20045;-67
2022/10/19 03:48:51;;;;;;;7.83;1.23;;;9.30;99.90;;;;;;5015940;28;20045;-67
2022/10/19 03:51:20;;;;;;;8.23;0.77;;;9.30;99.90;;;;;;5025208;28;20322;-67
2022/10/19 03:53:46;;;;;;;4.30;0.70;;;9.30;99.90;;;;;;5015680;28;20037;-67
2022/10/19 03:56:18;;;;;;;5.85;0.50;;;9.20;99.90;;;;;;5030429;28;20387;-67
2022/10/19 03:58:45;;;;;;;8.97;1.17;;;9.20;99.90;;;;;;5044159;28;20127;-67
2022/10/19 04:01:15;;;;;;;5.60;0.60;;;9.20;99.90;;;;;;5030591;28;20636;-67
2022/10/19 04:03:41;;;;;;;8.43;1.00;;;9.20;99.90;;;;;;5019603;28;20036;-67
2022/10/19 04:06:12;;;;;;;6.57;1.20;;;9.20;99.90;;;;;;5041122;28;20033;-67
2022/10/19 04:08:38;;;;;;;8.33;1.53;;;9.20;99.90;;;;;;5023747;28;20047;-67
2022/10/19 04:11:06;;;;;;;7.17;0.80;;;9.20;99.90;;;;;;5039045;28;20287;-67
2022/10/19 04:13:33;;;;;;;5.63;1.02;;;9.30;99.90;;;;;;5033178;28;20043;-67
2022/10/19 04:15:59;;;;;;;8.07;0.70;;;9.30;99.90;;;;;;5028850;28;20044;-67
2022/10/19 04:18:24;;;;;;;9.50;1.33;;;9.30;99.90;;;;;;5011319;28;20037;-67
2022/10/19 04:20:58;;;;;;;9.57;0.90;;;9.30;99.90;;;;;;5021392;28;20041;-67
2022/10/19 04:23:26;;;;;;;9.65;1.17;;;9.30;99.90;;;;;;5012149;28;20132;-67
2022/10/19 04:25:52;;;;;;;8.80;1.30;;;9.30;99.90;;;;;;5025664;28;20056;-67
2022/10/19 04:28:18;;;;;;;7.23;0.60;;;9.30;99.90;;;;;;5026728;28;20677;-67
2022/10/19 04:30:43;;;;;;;9.43;0.90;;;9.40;99.90;;;;;;5024552;28;20095;-67
2022/10/19 04:33:09;;;;;;;7.60;0.77;;;9.40;99.90;;;;;;5004870;28;20077;-67
2022/10/19 04:35:34;;;;;;;5.27;1.03;;;9.40;99.90;;;;;;5024447;28;20679;-67
2022/10/19 04:38:00;;;;;;;7.60;1.00;;;9.40;99.90;;;;;;5025389;28;20339;-67
2022/10/19 04:40:26;;;;;;;4.93;0.90;;;9.50;99.90;;;;;;5008199;28;20037;-67
2022/10/19 04:42:51;;;;;;;6.70;0.80;;;9.40;99.90;;;;;;5013136;28;20060;-67
2022/10/19 04:45:17;;;;;;;6.97;1.57;;;9.40;99.90;;;;;;5008319;28;20033;-67
2022/10/19 04:47:43;;;;;;;13.03;1.43;;;9.30;99.90;;;;;;5025159;28;20397;-67
2022/10/19 04:50:08;;;;;;;5.37;0.80;;;9.30;99.90;;;;;;5020481;28;20088;-67
2022/10/19 04:52:34;;;;;;;9.73;1.00;;;9.20;99.90;;;;;;5008095;28;20045;-67
2022/10/19 04:55:00;;;;;;;10.23;0.80;;;9.10;99.90;;;;;;5008219;28;20045;-67
2022/10/19 04:57:26;;;;;;;6.55;0.80;;;9.10;99.90;;;;;;5008767;28;20169;-67
2022/10/19 04:59:52;;;;;;;8.30;1.30;;;9.00;99.90;;;;;;5042393;28;20053;-67
2022/10/19 05:02:17;;;;;;;11.17;0.87;;;8.90;99.90;;;;;;5014366;28;20042;-67
2022/10/19 05:04:43;;;;;;;11.33;1.23;;;8.90;99.90;;;;;;5023776;28;20053;-67
2022/10/19 05:07:09;;;;;;;9.00;1.53;;;8.80;99.90;;;;;;5024509;28;20053;-67
2022/10/19 05:09:34;;;;;;;10.03;1.67;;;8.80;99.90;;;;;;5020735;28;20113;-67
2022/10/19 05:12:00;;;;;;;11.40;0.73;;;8.80;99.90;;;;;;5021136;28;20092;-67
2022/10/19 05:14:26;;;;;;;12.40;1.07;;;8.80;99.90;;;;;;5021532;28;20137;-67
2022/10/19 05:16:51;;;;;;;12.47;1.27;;;8.80;99.90;;;;;;5024112;28;20042;-67
2022/10/19 05:19:17;;;;;;;8.53;0.80;;;8.80;99.90;;;;;;5023430;28;20045;-67
2022/10/19 05:21:43;;;;;;;10.63;1.10;;;8.70;99.90;;;;;;5007470;28;20079;-67
2022/10/19 05:24:11;;;;;;;10.27;0.90;;;8.70;99.90;;;;;;5011740;28;20118;-67
2022/10/19 05:26:36;;;;;;;9.35;1.40;;;8.80;99.90;;;;;;5024000;28;20045;-67
2022/10/19 05:29:03;;;;;;;9.97;1.33;;;8.70;99.90;;;;;;5007676;28;20045;-67
2022/10/19 05:31:31;;;;;;;4.03;0.70;;;8.70;99.90;;;;;;5007717;28;20125;-67
2022/10/19 05:33:57;;;;;;;9.48;1.27;;;8.70;99.90;;;;;;5022628;28;20336;-67
2022/10/19 05:36:35;;;;;;;6.70;1.38;;;8.80;99.90;;;;;;5023668;28;20354;-67
2022/10/19 05:39:11;;;;;;;7.10;0.90;;;8.70;99.90;;;;;;5023785;28;20053;-67
2022/10/19 05:41:37;;;;;;;7.60;0.70;;;8.70;99.90;;;;;;5023450;28;20038;-67
2022/10/19 05:44:03;;;;;;;6.83;1.27;;;8.70;99.90;;;;;;5023679;28;20049;-67
2022/10/19 05:46:31;;;;;;;10.88;1.10;;;8.80;99.90;;;;;;5023871;28;20048;-67
2022/10/19 05:48:57;;;;;;;10.30;1.27;;;8.80;99.90;;;;;;5007588;28;20061;-67
2022/10/19 05:51:24;;;;;;;12.45;1.50;;;8.90;99.90;;;;;;5007386;28;20050;-67
2022/10/19 05:53:52;;;;;;;7.85;0.80;;;8.90;99.90;;;;;;5022692;28;20164;-67
2022/10/19 05:56:21;;;;;;;9.75;1.13;;;9.00;99.90;;;;;;5006366;28;20108;-67
2022/10/19 05:58:48;;;;;;;10.32;0.85;;;9.00;99.90;;;;;;5025849;28;20466;-67
2022/10/19 06:01:15;;;;;;;8.60;1.85;;;9.00;99.90;;;;;;5039862;28;20037;-67
2022/10/19 06:03:41;;;;;;;8.70;0.85;;;9.10;99.90;;;;;;5026794;28;20034;-67
2022/10/19 06:06:08;;;;;;;11.17;1.43;;;9.10;99.90;;;;;;5027971;28;20052;-67
2022/10/19 06:08:34;;;;;;;8.55;1.20;;;9.20;99.90;;;;;;5011001;28;20076;-67
2022/10/19 06:11:12;;;;;;;7.60;1.13;;;9.30;99.90;;;;;;5027980;28;20045;-67
2022/10/19 06:13:39;;;;;;;9.80;1.60;;;9.30;99.90;;;;;;5027762;28;20037;-67
2022/10/19 06:16:06;;;;;;;11.02;1.30;;;9.40;99.80;;;;;;5027162;28;20485;-67
2022/10/19 06:18:32;;;;;;;7.28;1.08;;;9.40;99.70;;;;;;5027999;28;20049;-67
2022/10/19 06:21:04;;;;;;;10.37;1.33;;;9.30;99.60;;;;;;5027629;28;20041;-67
2022/10/19 06:23:30;;;;;;;14.90;1.33;;;9.40;99.50;;;;;;5031654;28;20040;-67
2022/10/19 06:25:56;;;;;;;6.95;1.10;;;9.40;99.30;;;;;;5027398;28;20115;-67
2022/10/19 06:28:22;;;;;;;10.13;2.00;;;9.40;99.30;;;;;;5011430;28;20050;-67
2022/10/19 06:30:48;;;;;;;7.10;1.07;;;9.40;99.10;;;;;;5026972;28;20043;-67
2022/10/19 06:33:13;;;;;;;9.43;1.23;;;9.40;99.10;;;;;;5026272;28;20064;-67
2022/10/19 06:35:41;;;;;;;7.33;1.33;;;9.40;99.00;;;;;;5027793;28;20056;-67
2022/10/19 06:38:08;;;;;;;9.15;1.10;;;9.40;98.90;;;;;;5027437;28;20096;-67
2022/10/19 06:40:34;;;;;;;13.02;1.77;;;9.40;98.90;;;;;;4994086;28;20050;-67
2022/10/19 06:43:00;;;;;;;8.45;1.73;;;9.40;99.10;;;;;;5026331;28;20048;-67
2022/10/19 06:45:26;;;;;;;8.80;1.07;;;9.50;99.00;;;;;;5014304;28;20405;-67
2022/10/19 06:47:52;;;;;;;10.93;1.10;;;9.60;98.80;;;;;;5044118;28;20034;-67
2022/10/19 06:50:19;;;;;;;8.37;1.37;;;9.60;98.80;;;;;;5026880;28;20049;-67
2022/10/19 06:52:45;;;;;;;11.18;1.30;;;9.60;98.70;;;;;;5038654;28;20045;-67
2022/10/19 06:55:11;;;;;;;9.50;0.80;;;9.70;98.90;;;;;;5033082;28;20583;-67
2022/10/19 06:57:37;;;;;;;11.05;1.65;;;9.70;98.50;;;;;;5032437;28;20042;-67
2022/10/19 07:00:05;;;;;;;8.67;0.90;;;9.80;98.60;;;;;;5010478;28;20058;-67
2022/10/19 07:02:32;;;;;;;7.95;1.00;;;9.90;98.80;;;;;;5026257;28;20515;-67
2022/10/19 07:04:57;;;;;;;13.10;1.25;;;9.90;98.50;;;;;;5030167;28;20487;-67
2022/10/19 07:07:23;;;;;;;13.00;1.30;;;10.00;98.10;;;;;;5030179;28;20045;-67
2022/10/19 07:09:49;;;;;;;9.90;0.97;;;10.00;97.90;;;;;;5013371;28;20155;-67
2022/10/19 07:12:15;;;;;;;7.93;0.80;;;10.10;97.60;;;;;;5024464;28;20701;-67
2022/10/19 07:14:41;;;;;;;9.50;1.60;;;10.20;97.30;;;;;;5027574;28;20144;-67
2022/10/19 07:17:08;;;;;;;4.10;0.70;;;10.20;97.20;;;;;;5000931;28;20157;-67
2022/10/19 07:19:34;;;;;;;9.93;1.60;;;10.40;96.60;;;;;;5013971;28;20049;-67
2022/10/19 07:22:00;;;;;;;9.13;1.23;;;10.40;96.50;;;;;;5021121;28;20284;-67
2022/10/19 07:24:26;;;;;;;7.43;1.10;;;10.50;96.10;;;;;;5026024;28;20075;-67
2022/10/19 07:26:51;;;;;;;9.30;0.87;;;10.50;96.30;;;;;;5025528;28;20038;-67
2022/10/19 07:29:17;;;;;;;7.70;1.10;;;10.60;96.10;;;;;;5005600;28;21177;-67
2022/10/19 07:31:43;;;;;;;9.80;1.60;;;10.60;96.00;;;;;;5025245;28;20049;-67
2022/10/19 07:34:11;;;;;;;6.83;0.83;;;10.70;95.30;;;;;;5025073;28;20046;-67
2022/10/19 07:36:38;;;;;;;8.90;1.33;;;10.70;95.10;;;;;;5025928;28;20037;-67
2022/10/19 07:39:06;;;;;;;16.27;2.20;;;10.80;94.70;;;;;;5008196;28;20370;-67
2022/10/19 07:41:33;;;;;;;8.87;0.90;;;10.90;94.40;;;;;;5025499;28;20279;-67
2022/10/19 07:44:00;;;;;;;10.80;1.80;;;11.00;94.00;;;;;;5024429;28;20288;-67
2022/10/19 07:46:28;;;;;;;8.83;1.00;;;11.00;93.90;;;;;;5024457;28;20359;-67
2022/10/19 07:48:54;;;;;;;7.47;1.10;;;11.10;93.70;;;;;;5024097;28;20315;-67
2022/10/19 07:51:21;;;;;;;11.47;1.33;;;11.10;93.30;;;;;;5012124;28;20288;-67
2022/10/19 07:53:47;;;;;;;10.83;1.23;;;11.10;93.60;;;;;;5025069;28;20292;-67
2022/10/19 07:56:16;;;;;;;9.33;1.00;;;11.20;93.30;;;;;;5022957;28;20288;-67
2022/10/19 07:58:42;;;;;;;7.00;0.70;;;11.30;93.40;;;;;;5024749;28;20284;-67
2022/10/19 08:01:14;;;;;;;9.70;0.93;;;11.30;93.20;;;;;;5024149;28;20294;-67
2022/10/19 08:03:40;;;;;;;9.37;1.10;;;11.40;92.50;;;;;;5027679;28;21174;-67
2022/10/19 08:06:08;;;;;;;7.37;1.33;;;11.50;92.30;;;;;;5023801;28;20342;-67
2022/10/19 08:08:35;;;;;;;8.90;1.20;;;11.50;91.80;;;;;;5022533;28;20376;-67
2022/10/19 08:11:20;;;;;;;11.57;0.97;;;11.60;91.50;;;;;;5009372;28;20307;-67
2022/10/19 08:13:46;;;;;;;10.77;1.00;;;11.70;90.90;;;;;;5024369;28;20272;-67
2022/10/19 08:16:36;;;;;;;7.87;0.90;;;11.80;90.00;;;;;;5027835;28;20275;-67
2022/10/19 08:19:08;;;;;;;10.93;1.33;;;11.80;88.50;;;;;;5031833;28;20334;-67
2022/10/19 08:21:34;;;;;;;9.83;1.00;;;11.90;88.80;;;;;;5021976;28;20385;-67
2022/10/19 08:24:00;;;;;;;10.73;0.73;;;12.00;87.00;;;;;;5023598;28;20864;-67
2022/10/19 08:26:31;;;;;;;7.33;1.53;;;12.00;86.70;;;;;;5022393;28;20371;-67
2022/10/19 08:29:05;;;;;;;5.17;0.70;;;12.10;86.00;;;;;;5024019;28;20441;-67
2022/10/19 08:31:31;;;;;;;5.40;0.93;;;12.10;82.50;;;;;;5022046;28;20315;-67
2022/10/19 08:33:57;;;;;;;10.40;1.93;;;12.10;82.40;;;;;;5024385;28;20339;-67
2022/10/19 08:36:23;;;;;;;9.13;1.00;;;12.10;82.30;;;;;;5021073;28;20048;-68
2022/10/19 08:38:49;;;;;;;5.53;0.70;;;12.10;82.80;;;;;;5023525;28;20342;-67
2022/10/19 08:41:27;;;;;;;4.67;0.53;;;12.20;82.30;;;;;;5020142;28;20828;-67
2022/10/19 08:43:58;;;;;;;4.63;0.67;;;12.20;81.30;;;;;;5023269;28;20944;-67
2022/10/19 08:46:50;;;;;;;6.97;0.90;;;12.20;80.90;;;;;;5025145;28;20288;-67
2022/10/19 08:49:20;;;;;;;5.03;0.50;;;12.30;81.20;;;;;;5014520;28;20296;-67
2022/10/19 08:51:52;;;;;;;11.40;0.80;;;12.30;79.90;;;;;;5024757;28;20280;-67
2022/10/19 08:54:18;;;;;;;5.53;0.60;;;12.30;77.90;;;;;;5023813;28;20284;-67
2022/10/19 08:57:07;;;;;;;5.90;0.63;;;12.30;78.10;;;;;;5023376;28;20279;-67
2022/10/19 08:59:53;;;;;;;4.43;0.60;;;12.30;78.90;;;;;;5048929;28;20304;-67
2022/10/19 09:02:44;;;;;;;9.23;0.83;;;12.40;79.50;;;;;;5022920;28;20338;-67
2022/10/19 09:05:28;;;;;;;14.53;1.80;;;12.50;77.70;;;;;;5023678;28;20639;-67
2022/10/19 09:07:54;;;;;;;3.83;0.70;;;12.50;77.70;;;;;;5027772;28;20398;-67
2022/10/19 09:10:26;;;;;;;9.03;1.27;;;12.50;78.20;;;;;;5030753;28;20311;-67
2022/10/19 09:13:02;;;;;;;10.67;0.77;;;12.50;78.30;;;;;;5025968;28;20284;-67
2022/10/19 09:15:33;;;;;;;;;;;12.60;79.00;;;;;;5028368;28;20277;-67
2022/10/19 09:18:00;;;;;;;7.60;0.90;;;12.70;77.00;;;;;;5013351;28;20395;-67
2022/10/19 09:20:47;;;;;;;6.80;0.63;;;12.70;79.00;;;;;;5006393;28;20345;-67
2022/10/19 09:23:19;;;;;;;6.83;0.70;;;12.80;77.00;;;;;;5028496;28;20323;-67
2022/10/19 09:25:49;;;;;;;8.80;0.80;;;12.80;77.10;;;;;;5027133;28;20670;-67
2022/10/19 09:28:32;;;;;;;7.50;1.23;;;12.90;76.90;;;;;;5032164;28;20781;-67
2022/10/19 09:30:58;;;;;;;9.50;1.10;;;12.90;77.30;;;;;;5032115;28;20304;-67
2022/10/19 09:33:33;;;;;;;5.53;0.60;;;13.00;77.40;;;;;;5015551;28;20284;-67
2022/10/19 09:36:01;;;;;;;7.90;0.60;;;13.00;77.50;;;;;;5012951;28;20380;-67
2022/10/19 09:38:28;;;;;;;7.17;1.10;;;13.00;77.40;;;;;;5026569;28;20046;-67
2022/10/19 09:41:16;;;;;;;6.43;0.73;;;13.10;76.70;;;;;;5026934;28;20642;-67
2022/10/19 09:43:49;;;;;;;10.47;0.90;;;13.10;75.50;;;;;;5004933;28;20350;-67
2022/10/19 09:46:38;;;;;;;6.33;0.80;;;13.10;76.30;;;;;;5024329;28;20807;-67
2022/10/19 09:49:04;;;;;;;6.63;0.80;;;13.20;76.50;;;;;;5023104;28;20311;-67
2022/10/19 09:51:51;;;;;;;8.40;1.03;;;13.20;76.60;;;;;;5006162;28;20358;-67
2022/10/19 09:54:35;;;;;;;7.93;0.70;;;13.20;76.00;;;;;;5026466;28;20280;-67
2022/10/19 09:57:02;;;;;;;5.77;1.13;;;13.20;75.00;;;;;;5034823;28;20284;-67
2022/10/19 09:59:32;;;;;;;9.50;0.97;;;13.30;75.70;;;;;;5020456;28;20284;-67
2022/10/19 10:02:19;;;;;;;9.70;1.00;;;13.30;75.80;;;;;;5005734;28;20413;-67
2022/10/19 10:05:08;;;;;;;9.50;0.90;;;13.40;74.90;;;;;;5006081;28;20289;-67
2022/10/19 10:07:38;;;;;;;5.37;0.70;;;13.40;75.20;;;;;;5007719;28;20284;-67
2022/10/19 10:10:27;;;;;;;7.30;0.40;;;13.40;75.10;;;;;;5023213;28;20698;-67
2022/10/19 10:12:53;;;;;;;7.17;0.83;;;13.40;74.60;;;;;;5015197;28;20666;-67
2022/10/19 10:15:40;;;;;;;5.37;0.57;;;13.40;74.40;;;;;;5022436;28;20627;-67
2022/10/19 10:18:08;;;;;;;8.37;1.80;;;13.50;73.10;;;;;;5020667;28;20029;-68
2022/10/19 10:20:35;;;;;;;7.60;0.90;;;13.50;73.60;;;;;;5022621;28;21278;-68
2022/10/19 10:23:03;;;;;;;5.10;0.60;;;13.50;74.00;;;;;;5022616;28;20311;-68
2022/10/19 10:25:32;;;;;;;7.77;1.00;;;13.50;74.20;;;;;;5038193;28;20950;-68
2022/10/19 10:28:19;;;;;;;4.10;0.83;;;13.50;74.60;;;;;;5022831;28;20288;-67
2022/10/19 10:30:47;;;;;;;7.37;0.90;;;13.60;74.40;;;;;;5025334;28;20795;-69
2022/10/19 10:33:24;;;;;;;8.63;1.10;;;13.60;74.40;;;;;;5022714;28;20287;-69
2022/10/19 10:35:52;;;;;;;5.47;0.70;;;13.60;74.10;;;;;;5027848;28;20272;-69
2022/10/19 10:38:26;;;;;;;5.17;0.57;;;13.70;73.00;;;;;;5023100;28;20614;-69
2022/10/19 10:41:14;;;;;;;7.17;0.73;;;13.60;72.10;;;;;;5044421;28;20284;-68
2022/10/19 10:43:56;;;;;;;12.23;1.00;;;13.50;72.20;;;;;;5019340;28;20295;-69
2022/10/19 10:46:27;;;;;;;9.20;1.13;;;13.60;72.80;;;;;;5048840;28;20296;-68
2022/10/19 10:48:58;;;;;;;3.97;0.60;;;13.60;74.00;;;;;;5024869;28;20579;-68
2022/10/19 10:51:39;;;;;;;5.73;0.83;;;13.70;73.20;;;;;;5024860;28;20287;-68
2022/10/19 10:54:24;;;;;;;6.47;0.80;;;13.70;72.00;;;;;;5024942;28;20330;-69
2022/10/19 10:57:12;;;;;;;4.88;0.85;;;13.60;71.30;;;;;;5024019;28;20398;-69
2022/10/19 10:59:58;;;;;;;6.47;0.77;;;13.60;71.00;;;;;;5040344;28;20052;-68
2022/10/19 11:02:41;;;;;;;7.80;1.73;;;13.60;71.80;;;;;;5040345;28;20280;-69
2022/10/19 11:05:28;;;;;;;6.53;1.07;;;13.60;72.10;;;;;;5040432;28;20091;-69
2022/10/19 11:08:24;;;;;;;7.23;0.80;;;13.70;72.00;;;;;;5026714;28;20734;-69
2022/10/19 11:11:01;;;;;;;7.80;1.02;;;13.80;72.30;;;;;;5009142;28;20390;-69
2022/10/19 11:13:33;;;;;;;8.53;0.77;;;13.90;71.90;;;;;;5025198;28;20053;-69
2022/10/19 11:16:12;;;;;;;5.27;0.90;;;13.90;71.80;;;;;;5039435;28;20291;-69
2022/10/19 11:18:52;;;;;;;4.97;0.40;;;14.00;72.50;;;;;;5038067;28;20284;-69
2022/10/19 11:21:21;;;;;;;8.40;1.17;;;14.00;72.80;;;;;;5024589;28;20838;-68
2022/10/19 11:24:09;;;;;;;7.07;0.60;;;14.10;72.30;;;;;;5027434;28;20378;-68
2022/10/19 11:26:41;;;;;;;5.53;0.60;;;14.10;72.20;;;;;;5023728;28;20288;-68
2022/10/19 11:29:07;;;;;;;8.10;0.73;;;14.10;71.90;;;;;;5024612;28;20430;-69
2022/10/19 11:31:44;;;;;;;9.17;1.80;;;14.10;71.80;;;;;;5024007;28;20375;-69
2022/10/19 11:34:31;;;;;;;9.80;0.83;;;14.20;71.80;;;;;;5023254;28;20056;-69
2022/10/19 11:37:15;;;;;;;5.90;0.60;;;14.40;70.30;;;;;;5023597;28;20280;-68
2022/10/19 11:39:44;;;;;;;4.73;0.50;;;14.50;70.20;;;;;;5025102;28;20311;-69
2022/10/19 11:42:19;;;;;;;8.03;0.93;;;14.60;70.80;;;;;;5023882;28;20643;-68
2022/10/19 11:45:10;;;;;;;7.47;0.80;;;14.70;70.10;;;;;;5006333;28;20295;-69
2022/10/19 11:47:48;;;;;;;7.57;0.70;;;14.60;70.00;;;;;;5017030;28;20291;-69
2022/10/19 11:50:38;;;;;;;4.77;0.67;;;14.50;70.30;;;;;;5032907;28;20621;-69
2022/10/19 11:53:06;;;;;;;4.43;0.60;;;14.40;70.20;;;;;;5025637;28;20651;-69
2022/10/19 11:55:38;;;;;;;5.07;0.50;;;14.50;70.90;;;;;;5027102;28;20315;-69
2022/10/19 11:58:22;;;;;;;7.97;0.97;;;14.60;70.10;;;;;;5029491;28;20284;-68
2022/10/19 12:01:02;;;;;;;9.03;0.80;;;14.50;69.60;;;;;;5034000;28;20291;-69
2022/10/19 12:04:01;;;;;;;4.27;0.60;;;14.40;70.20;;;;;;5033041;28;20331;-69
2022/10/19 12:07:05;;;;;;;5.30;0.67;;;14.40;70.20;;;;;;5019312;28;20284;-69
2022/10/19 12:10:09;;;;;;;6.23;0.60;;;14.30;70.10;;;;;;5029384;28;20343;-69
2022/10/19 12:12:46;;;;;;;6.43;1.40;;;14.20;70.80;;;;;;5024775;28;20290;-68
2022/10/19 12:15:22;;;;;;;5.33;0.60;;;14.10;71.20;;;;;;5028602;28;20355;-69
2022/10/19 12:17:52;;;;;;;5.67;0.50;;;14.10;71.70;;;;;;5030329;28;20294;-68
2022/10/19 12:20:38;;;;;;;7.63;0.63;;;14.00;71.40;;;;;;5019085;28;20756;-69
2022/10/19 12:23:35;;;;;;;5.90;0.80;;;14.00;71.40;;;;;;5028951;28;20359;-69
2022/10/19 12:26:04;;;;;;;4.80;0.40;;;14.00;71.70;;;;;;5028182;28;20342;-69
2022/10/19 12:28:32;;;;;;;4.10;0.50;;;13.90;72.20;;;;;;5029008;28;20775;-69
2022/10/19 12:31:01;;;;;;;4.80;0.70;;;14.00;72.30;;;;;;5030913;28;20295;-69
2022/10/19 12:33:55;;;;;;;6.37;0.43;;;14.20;71.40;;;;;;5022740;28;20378;-69
2022/10/19 12:36:33;;;;;;;9.03;0.90;;;14.40;70.10;;;;;;5039671;28;20290;-69
2022/10/19 12:39:18;;;;;;;6.27;0.60;;;14.50;70.10;;;;;;5023849;28;20343;-68
2022/10/19 12:42:02;;;;;;;9.70;0.83;;;14.60;69.20;;;;;;5021930;28;20285;-69
2022/10/19 12:45:06;;;;;;;5.57;0.75;;;14.60;70.20;;;;;;5037615;28;20417;-69
2022/10/19 12:47:32;;;;;;;5.77;0.70;;;14.70;69.70;;;;;;5007044;28;20049;-69
2022/10/19 12:49:58;;;;;;;6.63;0.90;;;14.90;69.70;;;;;;5033257;28;20442;-69
2022/10/19 12:52:44;;;;;;;7.07;0.70;;;14.90;70.50;;;;;;5010714;28;20045;-69
2022/10/19 12:55:21;;;;;;;7.47;0.70;;;14.90;68.20;;;;;;5042271;28;20288;-69
2022/10/19 12:57:55;;;;;;;5.97;0.60;;;14.80;69.20;;;;;;5032869;28;20057;-68
2022/10/19 13:00:22;;;;;;;4.93;0.80;;;14.90;69.00;;;;;;5028970;28;20293;-68
2022/10/19 13:03:00;;;;;;;5.97;0.80;;;14.90;69.20;;;;;;5027734;28;20822;-68
2022/10/19 13:05:29;;;;;;;6.50;1.23;;;14.90;68.80;;;;;;5037985;28;20814;-68
2022/10/19 13:07:55;;;;;;;5.20;0.77;;;14.80;69.10;;;;;;5024908;28;20288;-69
2022/10/19 13:10:24;;;;;;;6.03;0.87;;;14.80;69.00;;;;;;5023731;28;20304;-68
2022/10/19 13:12:50;;;;;;;4.40;0.67;;;14.70;69.10;;;;;;5022809;28;20652;-69
2022/10/19 13:15:49;;;;;;;15.70;0.80;;;14.50;68.90;;;;;;5024577;28;20779;-69